Time;durP1;ratioP1;P1;durP2;ratioP2;P2;SDS_P1;SDS_P2;PMS_P1;PMS_P2;Temp;Humidity;BMP_temperature;BMP_pressure;BME280_temperature;BME280_humidity;BME280_pressure;Samples;Min_cycle;Max_cycle;Signal;HPM_P1;HPM_P2
2021/07/24 00:01:21;;;;;;;15.75;11.50;;;;;;;;;;5029937;28;20498;-48
2021/07/24 00:03:48;;;;;;;12.45;10.60;;;;;;;;;;5021178;28;20041;-47
2021/07/24 00:06:24;;;;;;;15.05;11.13;;;;;;;;;;5034409;28;20080;-49
2021/07/24 00:08:51;;;;;;;13.52;10.95;;;;;;;;;;5018564;28;20063;-47
2021/07/24 00:11:18;;;;;;;12.90;10.55;;;;;;;;;;5015374;28;20049;-47
2021/07/24 00:13:44;;;;;;;13.25;10.52;;;;;;;;;;5032874;28;20118;-51
2021/07/24 00:16:11;;;;;;;13.63;11.10;;;;;;;;;;5022806;28;20103;-48
2021/07/24 00:18:38;;;;;;;14.07;10.68;;;;;;;;;;5022250;28;20475;-48
2021/07/24 00:21:05;;;;;;;13.18;11.45;;;;;;;;;;5035062;28;20073;-48
2021/07/24 00:23:31;;;;;;;14.10;10.55;;;;;;;;;;5031654;28;20069;-51
2021/07/24 00:25:58;;;;;;;13.45;10.57;;;;;;;;;;5015212;28;20482;-46
2021/07/24 00:28:25;;;;;;;12.43;10.55;;;;;;;;;;5019914;28;20079;-49
2021/07/24 00:30:52;;;;;;;14.50;11.07;;;;;;;;;;5014979;28;20124;-47
2021/07/24 00:33:25;;;;;;;17.73;11.52;;;;;;;;;;5024704;28;20116;-48
2021/07/24 00:35:54;;;;;;;15.77;11.05;;;;;;;;;;5034612;28;20055;-50
2021/07/24 00:38:20;;;;;;;15.05;10.30;;;;;;;;;;5027155;28;20076;-48
2021/07/24 00:40:53;;;;;;;13.35;10.75;;;;;;;;;;5014883;28;20070;-48
2021/07/24 00:43:24;;;;;;;15.55;11.32;;;;;;;;;;5032972;28;20095;-46
2021/07/24 00:45:52;;;;;;;13.57;10.07;;;;;;;;;;5034568;28;20052;-46
2021/07/24 00:48:21;;;;;;;14.80;11.10;;;;;;;;;;5028374;28;20037;-46
2021/07/24 00:51:11;;;;;;;12.05;10.23;;;;;;;;;;5032076;28;20120;-45
2021/07/24 00:53:39;;;;;;;16.38;11.88;;;;;;;;;;5032463;28;20450;-49
2021/07/24 00:56:06;;;;;;;14.52;11.52;;;;;;;;;;5032915;28;20429;-50
2021/07/24 00:58:35;;;;;;;13.88;11.25;;;;;;;;;;5033001;28;20044;-49
2021/07/24 01:01:03;;;;;;;14.70;11.18;;;;;;;;;;5014689;28;20053;-45
2021/07/24 01:03:31;;;;;;;14.45;10.43;;;;;;;;;;5015039;28;20403;-49
2021/07/24 01:05:58;;;;;;;13.32;10.95;;;;;;;;;;5033610;28;20044;-49
2021/07/24 01:08:26;;;;;;;13.27;10.60;;;;;;;;;;5027078;28;20539;-46
2021/07/24 01:10:53;;;;;;;12.50;10.75;;;;;;;;;;5012975;28;20109;-48
2021/07/24 01:13:21;;;;;;;13.88;11.27;;;;;;;;;;5046701;28;20068;-47
2021/07/24 01:15:49;;;;;;;13.82;11.43;;;;;;;;;;5031418;28;20045;-48
2021/07/24 01:18:20;;;;;;;15.07;11.10;;;;;;;;;;5014065;28;20048;-51
2021/07/24 01:20:48;;;;;;;13.18;10.88;;;;;;;;;;5027183;28;20041;-49
2021/07/24 01:23:17;;;;;;;16.00;11.07;;;;;;;;;;5031276;28;20044;-48
2021/07/24 01:25:50;;;;;;;15.52;11.60;;;;;;;;;;5031073;28;20095;-47
2021/07/24 01:28:25;;;;;;;13.30;11.07;;;;;;;;;;5028533;28;20491;-50
2021/07/24 01:30:53;;;;;;;15.38;11.20;;;;;;;;;;5029072;28;20046;-45
2021/07/24 01:33:23;;;;;;;15.55;11.98;;;;;;;;;;5031791;28;20470;-46
2021/07/24 01:35:51;;;;;;;14.05;10.98;;;;;;;;;;5031173;28;20049;-49
2021/07/24 01:38:19;;;;;;;12.98;11.00;;;;;;;;;;5031880;28;20053;-45
2021/07/24 01:40:54;;;;;;;12.82;11.20;;;;;;;;;;5031728;28;20073;-46
2021/07/24 01:43:21;;;;;;;13.05;11.02;;;;;;;;;;5016198;28;20411;-44
2021/07/24 01:45:48;;;;;;;13.05;10.75;;;;;;;;;;5013844;28;20403;-48
2021/07/24 01:48:29;;;;;;;14.60;11.13;;;;;;;;;;5024710;28;20050;-47
2021/07/24 01:53:45;;;;;;;14.95;11.02;;;;;;;;;;5025741;28;20042;-47
2021/07/24 01:56:14;;;;;;;13.98;11.10;;;;;;;;;;5033027;28;20045;-46
2021/07/24 01:58:41;;;;;;;14.70;11.52;;;;;;;;;;5031167;28;20099;-46
2021/07/24 02:01:21;;;;;;;15.20;11.93;;;;;;;;;;5011987;28;20125;-45
2021/07/24 02:03:54;;;;;;;15.15;11.75;;;;;;;;;;5030855;28;20037;-44
2021/07/24 02:06:44;;;;;;;14.15;11.65;;;;;;;;;;5031561;28;20049;-47
2021/07/24 02:09:11;;;;;;;15.57;11.75;;;;;;;;;;5012794;28;20451;-45
2021/07/24 02:11:40;;;;;;;12.68;10.80;;;;;;;;;;5023999;28;20034;-48
2021/07/24 02:14:06;;;;;;;14.00;10.80;;;;;;;;;;5027386;28;20128;-46
2021/07/24 02:16:35;;;;;;;13.77;10.98;;;;;;;;;;5029446;28;20107;-45
2021/07/24 02:19:02;;;;;;;16.23;11.38;;;;;;;;;;5031921;28;20107;-46
2021/07/24 02:21:38;;;;;;;17.25;11.88;;;;;;;;;;5029706;28;20557;-44
2021/07/24 02:24:06;;;;;;;14.00;11.50;;;;;;;;;;5032692;28;20120;-44
2021/07/24 02:26:33;;;;;;;13.32;11.18;;;;;;;;;;5025665;28;20049;-46
2021/07/24 02:29:00;;;;;;;16.08;11.55;;;;;;;;;;5028350;28;20045;-45
2021/07/24 02:31:27;;;;;;;13.55;11.75;;;;;;;;;;5025505;28;20398;-46
2021/07/24 02:33:59;;;;;;;14.57;11.68;;;;;;;;;;5011590;28;20045;-49
2021/07/24 02:36:26;;;;;;;13.77;10.68;;;;;;;;;;5032125;28;20053;-47
2021/07/24 02:38:52;;;;;;;13.07;10.68;;;;;;;;;;5020891;28;20046;-46
2021/07/24 02:41:20;;;;;;;14.20;11.43;;;;;;;;;;5029235;28;20029;-45
2021/07/24 02:43:47;;;;;;;14.98;12.13;;;;;;;;;;5012910;28;20080;-46
2021/07/24 02:46:19;;;;;;;15.88;11.38;;;;;;;;;;5012633;28;20069;-45
2021/07/24 02:48:49;;;;;;;14.05;11.65;;;;;;;;;;5008283;28;20050;-44
2021/07/24 02:51:29;;;;;;;12.57;11.23;;;;;;;;;;5030064;28;20503;-44
2021/07/24 02:53:57;;;;;;;14.27;11.63;;;;;;;;;;5030707;28;20037;-44
2021/07/24 02:56:24;;;;;;;15.07;11.23;;;;;;;;;;5030139;28;20065;-44
2021/07/24 02:58:51;;;;;;;14.82;11.32;;;;;;;;;;5026087;28;20116;-45
2021/07/24 03:01:18;;;;;;;15.77;12.10;;;;;;;;;;5031751;28;20038;-44
2021/07/24 03:03:45;;;;;;;14.77;12.50;;;;;;;;;;5031449;28;20499;-44
2021/07/24 03:06:12;;;;;;;15.57;11.85;;;;;;;;;;5029561;28;20037;-44
2021/07/24 03:08:39;;;;;;;15.02;12.75;;;;;;;;;;5024562;28;20048;-44
2021/07/24 03:11:05;;;;;;;17.98;11.13;;;;;;;;;;5011909;28;20044;-44
2021/07/24 03:13:32;;;;;;;15.88;10.70;;;;;;;;;;5014066;28;20044;-44
2021/07/24 03:15:59;;;;;;;13.98;11.10;;;;;;;;;;5012467;28;20534;-45
2021/07/24 03:18:25;;;;;;;12.98;11.02;;;;;;;;;;5031429;28;20478;-44
2021/07/24 03:20:52;;;;;;;15.45;11.52;;;;;;;;;;5030534;28;20045;-44
2021/07/24 03:23:19;;;;;;;18.65;11.90;;;;;;;;;;5029850;28;20054;-44
2021/07/24 03:25:46;;;;;;;14.27;11.27;;;;;;;;;;5020476;28;20132;-44
2021/07/24 03:28:12;;;;;;;18.70;11.95;;;;;;;;;;5011657;28;20044;-44
2021/07/24 03:30:39;;;;;;;14.82;10.88;;;;;;;;;;5020672;28;20068;-44
2021/07/24 03:33:06;;;;;;;13.65;11.60;;;;;;;;;;5030496;28;20487;-44
2021/07/24 03:35:34;;;;;;;16.20;12.25;;;;;;;;;;5022719;28;20084;-46
2021/07/24 03:38:04;;;;;;;18.27;11.27;;;;;;;;;;5025050;28;20061;-45
2021/07/24 03:40:31;;;;;;;16.00;11.25;;;;;;;;;;5012439;28;20045;-47
2021/07/24 03:42:58;;;;;;;14.02;11.20;;;;;;;;;;5023945;28;20072;-46
2021/07/24 03:45:25;;;;;;;15.27;12.57;;;;;;;;;;5029985;28;20041;-48
2021/07/24 03:47:51;;;;;;;14.20;11.98;;;;;;;;;;5030306;28;20048;-46
2021/07/24 03:50:18;;;;;;;13.32;11.45;;;;;;;;;;5026976;28;20038;-47
2021/07/24 03:52:45;;;;;;;13.40;11.57;;;;;;;;;;5020623;28;20433;-46
2021/07/24 03:55:11;;;;;;;16.48;11.95;;;;;;;;;;5017884;28;20454;-49
2021/07/24 03:57:38;;;;;;;14.70;10.90;;;;;;;;;;5018183;28;20125;-46
2021/07/24 04:00:05;;;;;;;16.05;11.98;;;;;;;;;;5016079;28;20041;-48
2021/07/24 04:02:43;;;;;;;14.75;11.35;;;;;;;;;;5020174;28;20042;-46
2021/07/24 04:05:10;;;;;;;15.10;11.15;;;;;;;;;;5016621;28;20061;-45
2021/07/24 04:07:38;;;;;;;15.50;12.57;;;;;;;;;;5031098;28;20042;-45
2021/07/24 04:10:06;;;;;;;15.75;12.15;;;;;;;;;;5015562;28;20069;-49
2021/07/24 04:12:34;;;;;;;15.20;12.18;;;;;;;;;;5026805;28;20072;-46
2021/07/24 04:15:01;;;;;;;15.48;12.57;;;;;;;;;;5027800;28;20038;-49
2021/07/24 04:17:28;;;;;;;12.75;11.02;;;;;;;;;;5020558;28;20402;-48
2021/07/24 04:19:55;;;;;;;16.23;12.82;;;;;;;;;;5011363;28;20041;-47
2021/07/24 04:22:22;;;;;;;17.20;12.10;;;;;;;;;;5024857;28;20047;-45
2021/07/24 04:24:49;;;;;;;15.18;11.15;;;;;;;;;;5030473;28;20052;-44
2021/07/24 04:27:16;;;;;;;15.98;12.70;;;;;;;;;;5014971;28;20145;-46
2021/07/24 04:29:43;;;;;;;15.57;11.88;;;;;;;;;;5017942;28;20041;-45
2021/07/24 04:32:10;;;;;;;15.75;13.05;;;;;;;;;;5025691;28;20034;-46
2021/07/24 04:34:37;;;;;;;15.73;12.32;;;;;;;;;;5011842;28;20594;-47
2021/07/24 04:37:03;;;;;;;14.95;12.38;;;;;;;;;;5030657;28;20052;-50
2021/07/24 04:39:30;;;;;;;14.77;11.95;;;;;;;;;;5015999;28;20044;-46
2021/07/24 04:41:57;;;;;;;14.77;12.52;;;;;;;;;;5031270;28;20049;-46
2021/07/24 04:44:24;;;;;;;14.93;11.90;;;;;;;;;;5015165;28;20571;-47
2021/07/24 04:46:51;;;;;;;16.38;12.70;;;;;;;;;;5033280;28;20120;-47
2021/07/24 04:49:17;;;;;;;15.30;12.52;;;;;;;;;;5014584;28;20459;-47
2021/07/24 04:51:44;;;;;;;15.57;12.23;;;;;;;;;;5033645;28;20041;-47
2021/07/24 04:54:11;;;;;;;17.02;12.48;;;;;;;;;;5032787;28;20129;-50
2021/07/24 04:56:38;;;;;;;16.23;12.32;;;;;;;;;;5032782;28;20069;-45
2021/07/24 04:59:06;;;;;;;14.93;12.32;;;;;;;;;;5029590;28;20050;-45
2021/07/24 05:01:34;;;;;;;15.77;13.32;;;;;;;;;;5014425;28;20041;-49
2021/07/24 05:04:01;;;;;;;15.98;12.10;;;;;;;;;;5028236;28;20056;-48
2021/07/24 05:06:29;;;;;;;16.48;11.57;;;;;;;;;;5034204;28;20042;-49
2021/07/24 05:08:56;;;;;;;15.35;12.18;;;;;;;;;;5025275;28;20050;-47
2021/07/24 05:11:23;;;;;;;14.48;12.13;;;;;;;;;;5031442;28;20125;-46
2021/07/24 05:13:49;;;;;;;15.35;12.32;;;;;;;;;;5019153;28;20545;-42
2021/07/24 05:16:18;;;;;;;18.15;12.65;;;;;;;;;;5027240;28;20550;-43
2021/07/24 05:18:45;;;;;;;19.38;12.77;;;;;;;;;;5014181;28;20038;-50
2021/07/24 05:21:16;;;;;;;13.77;11.57;;;;;;;;;;5030678;28;20482;-44
2021/07/24 05:23:43;;;;;;;18.55;13.13;;;;;;;;;;5032755;28;20158;-45
2021/07/24 05:26:15;;;;;;;16.08;12.88;;;;;;;;;;5027623;28;20128;-46
2021/07/24 05:28:43;;;;;;;27.63;13.10;;;;;;;;;;5032472;28;20045;-44
2021/07/24 05:31:16;;;;;;;15.07;12.35;;;;;;;;;;5029116;28;20052;-44
2021/07/24 05:33:43;;;;;;;16.13;12.48;;;;;;;;;;5023491;28;20369;-44
2021/07/24 05:36:10;;;;;;;16.77;12.63;;;;;;;;;;5027147;28;20069;-45
2021/07/24 05:38:37;;;;;;;15.70;13.27;;;;;;;;;;5027173;28;20149;-44
2021/07/24 05:41:04;;;;;;;14.60;12.60;;;;;;;;;;5029046;28;20060;-45
2021/07/24 05:43:31;;;;;;;15.48;12.18;;;;;;;;;;5032723;28;20045;-50
2021/07/24 05:46:01;;;;;;;16.05;12.48;;;;;;;;;;5032066;28;20041;-44
2021/07/24 05:48:28;;;;;;;16.50;12.60;;;;;;;;;;5031894;28;20038;-45
2021/07/24 05:50:55;;;;;;;16.55;12.35;;;;;;;;;;5048331;22;20120;-47
2021/07/24 05:53:22;;;;;;;18.38;12.38;;;;;;;;;;5010630;28;20069;-45
2021/07/24 05:55:48;;;;;;;15.38;11.77;;;;;;;;;;5009900;28;20428;-46
2021/07/24 05:58:15;;;;;;;16.67;12.48;;;;;;;;;;5002726;28;20108;-46
2021/07/24 06:00:42;;;;;;;13.43;11.07;;;;;;;;;;5005690;28;20045;-46
2021/07/24 06:03:09;;;;;;;15.57;12.13;;;;;;;;;;4991803;28;20066;-49
2021/07/24 06:05:35;;;;;;;16.85;12.30;;;;;;;;;;4993063;28;20112;-46
2021/07/24 06:08:02;;;;;;;17.88;12.05;;;;;;;;;;4984713;28;20039;-47
2021/07/24 06:10:29;;;;;;;14.90;11.70;;;;;;;;;;4991794;28;20122;-45
2021/07/24 06:12:57;;;;;;;13.85;11.40;;;;;;;;;;4991964;28;20480;-47
2021/07/24 06:15:24;;;;;;;19.40;12.60;;;;;;;;;;4989566;28;20121;-48
2021/07/24 06:17:50;;;;;;;14.80;11.75;;;;;;;;;;4980105;28;20427;-52
2021/07/24 06:20:18;;;;;;;15.25;12.75;;;;;;;;;;4991002;28;20046;-47
2021/07/24 06:22:45;;;;;;;14.77;11.75;;;;;;;;;;4992266;28;20125;-48
2021/07/24 06:25:12;;;;;;;16.50;12.98;;;;;;;;;;4991875;28;20561;-43
2021/07/24 06:27:40;;;;;;;17.27;12.60;;;;;;;;;;4991161;28;20046;-48
2021/07/24 06:30:07;;;;;;;16.92;13.18;;;;;;;;;;4979934;28;20049;-50
2021/07/24 06:32:34;;;;;;;16.60;12.25;;;;;;;;;;4987643;28;20046;-50
2021/07/24 06:35:01;;;;;;;17.10;12.23;;;;;;;;;;4990953;28;20491;-50
2021/07/24 06:37:27;;;;;;;19.40;13.02;;;;;;;;;;4985028;28;20043;-49
2021/07/24 06:39:54;;;;;;;18.08;13.43;;;;;;;;;;4985619;28;20046;-50
2021/07/24 06:42:21;;;;;;;17.02;12.60;;;;;;;;;;4991563;28;20117;-48
2021/07/24 06:44:48;;;;;;;18.65;13.07;;;;;;;;;;4989004;28;20050;-44
2021/07/24 06:47:14;;;;;;;17.40;12.52;;;;;;;;;;4987753;28;20133;-45
2021/07/24 06:49:41;;;;;;;17.15;11.98;;;;;;;;;;4990769;28;20058;-44
2021/07/24 06:52:08;;;;;;;14.90;12.02;;;;;;;;;;4991487;28;20494;-46
2021/07/24 06:54:35;;;;;;;16.42;12.40;;;;;;;;;;4986165;28;20133;-45
2021/07/24 06:57:02;;;;;;;18.85;12.63;;;;;;;;;;4990815;28;20133;-44
2021/07/24 06:59:28;;;;;;;15.23;11.68;;;;;;;;;;4983861;28;20049;-44
2021/07/24 07:01:59;;;;;;;16.13;12.27;;;;;;;;;;4980910;28;20468;-48
2021/07/24 07:04:27;;;;;;;17.52;13.05;;;;;;;;;;4973256;28;20050;-47
2021/07/24 07:06:53;;;;;;;16.13;11.95;;;;;;;;;;4994886;28;20388;-48
2021/07/24 07:09:20;;;;;;;18.83;12.90;;;;;;;;;;4999110;28;20255;-45
2021/07/24 07:11:47;;;;;;;18.00;12.43;;;;;;;;;;4997765;28;20041;-46
2021/07/24 07:14:13;;;;;;;17.77;12.25;;;;;;;;;;4999594;28;20041;-48
2021/07/24 07:16:40;;;;;;;15.20;12.10;;;;;;;;;;5008057;28;20069;-48
2021/07/24 07:19:08;;;;;;;16.50;11.93;;;;;;;;;;4991111;28;20472;-50
2021/07/24 07:21:35;;;;;;;16.33;12.35;;;;;;;;;;4990329;28;20145;-48
2021/07/24 07:24:02;;;;;;;18.60;12.35;;;;;;;;;;4991591;28;20065;-46
2021/07/24 07:26:28;;;;;;;15.65;12.25;;;;;;;;;;4987997;28;20048;-46
2021/07/24 07:28:58;;;;;;;15.50;11.68;;;;;;;;;;4978194;28;20097;-47
2021/07/24 07:31:24;;;;;;;13.05;11.02;;;;;;;;;;4985776;28;20096;-50
2021/07/24 07:33:51;;;;;;;16.60;12.25;;;;;;;;;;4990095;28;20043;-46
2021/07/24 07:36:18;;;;;;;16.52;11.93;;;;;;;;;;4991265;28;20062;-49
2021/07/24 07:38:45;;;;;;;17.48;12.38;;;;;;;;;;4973160;28;20051;-44
2021/07/24 07:41:12;;;;;;;17.75;11.93;;;;;;;;;;4991282;28;20043;-45
2021/07/24 07:43:39;;;;;;;17.67;12.25;;;;;;;;;;4991357;28;20419;-48
2021/07/24 07:46:06;;;;;;;15.30;12.60;;;;;;;;;;4972051;28;20098;-45
2021/07/24 07:48:34;;;;;;;14.07;11.30;;;;;;;;;;4980049;28;20080;-45
2021/07/24 07:51:02;;;;;;;15.45;11.57;;;;;;;;;;4990910;28;20471;-49
2021/07/24 07:53:28;;;;;;;14.38;12.00;;;;;;;;;;4988660;28;20529;-46
2021/07/24 07:55:55;;;;;;;15.43;11.93;;;;;;;;;;4985707;28;20053;-49
2021/07/24 07:58:23;;;;;;;15.85;12.25;;;;;;;;;;4990634;28;20512;-46
2021/07/24 08:00:50;;;;;;;15.00;12.00;;;;;;;;;;4986937;28;20066;-45
2021/07/24 08:03:19;;;;;;;16.05;11.85;;;;;;;;;;4991645;28;20129;-46
2021/07/24 08:05:46;;;;;;;17.25;12.95;;;;;;;;;;4991647;28;20543;-45
2021/07/24 08:08:14;;;;;;;16.10;13.65;;;;;;;;;;4975903;28;20134;-45
2021/07/24 08:10:41;;;;;;;21.73;13.65;;;;;;;;;;4995134;28;20161;-44
2021/07/24 08:13:14;;;;;;;17.45;14.23;;;;;;;;;;4995114;28;20042;-46
2021/07/24 08:15:41;;;;;;;14.95;12.90;;;;;;;;;;4990776;28;20043;-45
2021/07/24 08:18:08;;;;;;;16.58;12.68;;;;;;;;;;4975165;28;20106;-46
2021/07/24 08:20:39;;;;;;;16.88;13.35;;;;;;;;;;4973832;28;20050;-48
2021/07/24 08:23:06;;;;;;;18.08;13.60;;;;;;;;;;4990345;28;20042;-48
2021/07/24 08:25:33;;;;;;;20.38;13.13;;;;;;;;;;4990938;28;20065;-47
2021/07/24 08:28:03;;;;;;;15.23;13.13;;;;;;;;;;4994222;28;20125;-49
2021/07/24 08:30:30;;;;;;;14.75;11.90;;;;;;;;;;4985863;28;20039;-46
2021/07/24 08:32:57;;;;;;;16.92;12.85;;;;;;;;;;4987000;28;20085;-49
2021/07/24 08:35:24;;;;;;;14.95;12.65;;;;;;;;;;4992874;28;20106;-48
2021/07/24 08:37:51;;;;;;;15.77;12.13;;;;;;;;;;4993506;28;20591;-49
2021/07/24 08:40:18;;;;;;;17.25;13.00;;;;;;;;;;4989417;28;20133;-46
2021/07/24 08:42:44;;;;;;;16.70;12.63;;;;;;;;;;5000033;28;20065;-45
2021/07/24 08:45:19;;;;;;;17.60;12.73;;;;;;;;;;4993906;28;20050;-49
2021/07/24 08:47:46;;;;;;;17.90;13.48;;;;;;;;;;4990327;28;20056;-48
2021/07/24 08:50:13;;;;;;;20.30;13.45;;;;;;;;;;4983969;28;20381;-46
2021/07/24 08:52:41;;;;;;;17.70;13.40;;;;;;;;;;5001203;28;20046;-46
2021/07/24 08:55:08;;;;;;;20.70;13.07;;;;;;;;;;5003097;28;20064;-47
2021/07/24 08:57:42;;;;;;;21.15;13.95;;;;;;;;;;4988531;28;20050;-47
2021/07/24 09:00:11;;;;;;;16.92;13.05;;;;;;;;;;4982106;28;20417;-46
2021/07/24 09:02:39;;;;;;;16.88;12.80;;;;;;;;;;4985285;28;20054;-44
2021/07/24 09:05:07;;;;;;;15.35;12.80;;;;;;;;;;4993324;28;20120;-48
2021/07/24 09:07:39;;;;;;;17.02;12.18;;;;;;;;;;4987169;28;20166;-49
2021/07/24 09:10:07;;;;;;;16.38;12.35;;;;;;;;;;4984974;28;20129;-49
2021/07/24 09:12:36;;;;;;;17.33;12.10;;;;;;;;;;4993841;28;20526;-50
2021/07/24 09:15:07;;;;;;;18.65;12.93;;;;;;;;;;4990389;28;20040;-48
2021/07/24 09:17:34;;;;;;;18.17;12.30;;;;;;;;;;4984545;28;20134;-51
2021/07/24 09:20:01;;;;;;;19.27;12.68;;;;;;;;;;4974955;28;20097;-48
2021/07/24 09:22:29;;;;;;;17.30;12.88;;;;;;;;;;4992782;28;20041;-47
2021/07/24 09:25:02;;;;;;;17.95;13.73;;;;;;;;;;4992080;28;20042;-47
2021/07/24 09:27:30;;;;;;;16.23;12.07;;;;;;;;;;4981528;28;20046;-48
2021/07/24 09:29:56;;;;;;;23.98;12.45;;;;;;;;;;4986523;28;20473;-50
2021/07/24 09:32:25;;;;;;;17.55;13.50;;;;;;;;;;4990041;28;20078;-50
2021/07/24 09:34:55;;;;;;;17.30;12.93;;;;;;;;;;4987099;28;20128;-47
2021/07/24 09:37:26;;;;;;;15.98;11.80;;;;;;;;;;4989686;28;20586;-46
2021/07/24 09:39:55;;;;;;;17.75;13.23;;;;;;;;;;4985221;28;20070;-48
2021/07/24 09:42:30;;;;;;;16.75;12.63;;;;;;;;;;4993541;28;20078;-47
2021/07/24 09:45:05;;;;;;;15.10;12.05;;;;;;;;;;4992631;28;20137;-51
2021/07/24 09:47:32;;;;;;;15.93;12.10;;;;;;;;;;4990643;28;20042;-48
2021/07/24 09:50:08;;;;;;;15.23;11.98;;;;;;;;;;4990737;28;20050;-46
2021/07/24 09:52:45;;;;;;;14.90;11.90;;;;;;;;;;4991642;28;20046;-51
2021/07/24 09:55:16;;;;;;;17.95;12.27;;;;;;;;;;4989221;28;20151;-49
2021/07/24 09:57:44;;;;;;;14.95;12.45;;;;;;;;;;4990329;28;20127;-47
2021/07/24 10:00:28;;;;;;;14.60;11.20;;;;;;;;;;4981000;28;20065;-48
2021/07/24 10:02:56;;;;;;;15.90;11.80;;;;;;;;;;4990302;28;20069;-48
2021/07/24 10:05:31;;;;;;;14.52;11.05;;;;;;;;;;4992261;28;20050;-48
2021/07/24 10:08:05;;;;;;;14.88;10.57;;;;;;;;;;4987446;28;20034;-50
2021/07/24 10:10:35;;;;;;;14.23;11.55;;;;;;;;;;4993125;28;20129;-48
2021/07/24 10:13:06;;;;;;;15.43;11.10;;;;;;;;;;4991223;28;20045;-47
2021/07/24 10:15:39;;;;;;;16.65;11.15;;;;;;;;;;4991819;28;20496;-47
2021/07/24 10:18:08;;;;;;;14.80;11.23;;;;;;;;;;4986915;28;20043;-47
2021/07/24 10:20:36;;;;;;;16.13;11.07;;;;;;;;;;4992330;28;20057;-45
2021/07/24 10:23:03;;;;;;;14.40;10.55;;;;;;;;;;4990741;28;20074;-46
2021/07/24 10:25:32;;;;;;;16.42;10.63;;;;;;;;;;4991303;28;20144;-50
2021/07/24 10:28:01;;;;;;;16.20;11.10;;;;;;;;;;4991188;28;20464;-47
2021/07/24 10:30:29;;;;;;;14.43;11.32;;;;;;;;;;4990142;28;20593;-46
2021/07/24 10:32:58;;;;;;;16.80;12.23;;;;;;;;;;4989854;28;20480;-47
2021/07/24 10:35:37;;;;;;;15.90;11.13;;;;;;;;;;4991497;28;20129;-46
2021/07/24 10:38:33;;;;;;;15.55;12.02;;;;;;;;;;4988007;28;20121;-48
2021/07/24 10:41:32;;;;;;;15.73;12.45;;;;;;;;;;4982813;28;20199;-48
2021/07/24 10:43:58;;;;;;;14.43;11.48;;;;;;;;;;4972240;28;20042;-50
2021/07/24 10:46:44;;;;;;;16.83;12.52;;;;;;;;;;4978778;28;20085;-49
2021/07/24 10:49:30;;;;;;;15.95;12.07;;;;;;;;;;4990029;28;20034;-47
2021/07/24 10:51:57;;;;;;;17.20;11.57;;;;;;;;;;4980613;28;20052;-47
2021/07/24 10:54:25;;;;;;;15.50;11.52;;;;;;;;;;4991844;28;20046;-48
2021/07/24 10:56:51;;;;;;;18.10;12.55;;;;;;;;;;4990047;28;20778;-48
2021/07/24 10:59:21;;;;;;;13.90;10.60;;;;;;;;;;4985714;28;20039;-49
2021/07/24 11:01:52;;;;;;;15.55;11.90;;;;;;;;;;4989415;28;20145;-48
2021/07/24 11:04:35;;;;;;;17.27;11.90;;;;;;;;;;4991984;28;20050;-47
2021/07/24 11:07:17;;;;;;;14.98;11.93;;;;;;;;;;4987585;28;20108;-49
2021/07/24 11:09:45;;;;;;;13.93;11.75;;;;;;;;;;4972070;28;20070;-47
2021/07/24 11:12:12;;;;;;;16.63;11.43;;;;;;;;;;4981952;28;20042;-53
2021/07/24 11:14:42;;;;;;;13.52;11.35;;;;;;;;;;4990218;28;20093;-47
2021/07/24 11:17:11;;;;;;;13.60;11.50;;;;;;;;;;4990106;28;20077;-47
2021/07/24 11:19:43;;;;;;;15.95;11.75;;;;;;;;;;4990286;28;20048;-51
2021/07/24 11:22:12;;;;;;;15.63;12.05;;;;;;;;;;4990826;28;20812;-47
2021/07/24 11:24:40;;;;;;;13.85;11.02;;;;;;;;;;4978690;28;20129;-45
2021/07/24 11:27:06;;;;;;;13.77;10.15;;;;;;;;;;4990497;28;20050;-47
2021/07/24 11:29:33;;;;;;;14.68;11.48;;;;;;;;;;4987992;28;20080;-51
2021/07/24 11:32:04;;;;;;;12.20;10.18;;;;;;;;;;4990437;28;20440;-51
2021/07/24 11:34:31;;;;;;;19.67;11.65;;;;;;;;;;4990916;28;20058;-51
2021/07/24 11:36:59;;;;;;;13.70;10.98;;;;;;;;;;4990490;28;20081;-47
2021/07/24 11:39:27;;;;;;;15.27;10.75;;;;;;;;;;4986305;28;20450;-46
2021/07/24 11:41:54;;;;;;;16.88;10.75;;;;;;;;;;4990735;28;20046;-48
2021/07/24 11:44:24;;;;;;;14.15;10.35;;;;;;;;;;4991994;28;20455;-51
2021/07/24 11:47:01;;;;;;;15.48;11.20;;;;;;;;;;4989118;28;20054;-49
2021/07/24 11:49:29;;;;;;;14.98;10.80;;;;;;;;;;4985507;28;20077;-46
2021/07/24 11:51:56;;;;;;;14.23;11.27;;;;;;;;;;5003032;23;20481;-46
2021/07/24 11:54:33;;;;;;;15.40;10.75;;;;;;;;;;4996039;28;20081;-44
2021/07/24 11:57:01;;;;;;;12.65;10.75;;;;;;;;;;4995114;28;20404;-47
2021/07/24 11:59:29;;;;;;;15.55;10.90;;;;;;;;;;4989053;28;20121;-47
2021/07/24 12:01:56;;;;;;;15.25;10.80;;;;;;;;;;4994724;28;20050;-47
2021/07/24 12:04:24;;;;;;;13.88;10.45;;;;;;;;;;4994875;28;20054;-47
2021/07/24 12:06:51;;;;;;;14.88;10.15;;;;;;;;;;4994130;28;20047;-48
2021/07/24 12:09:18;;;;;;;12.48;10.63;;;;;;;;;;4982522;28;20468;-48
2021/07/24 12:11:47;;;;;;;12.07;10.02;;;;;;;;;;4993977;28;20093;-47
2021/07/24 12:14:13;;;;;;;14.00;10.65;;;;;;;;;;4995601;28;20145;-49
2021/07/24 12:16:41;;;;;;;15.63;11.82;;;;;;;;;;4994506;28;20066;-48
2021/07/24 12:19:13;;;;;;;13.95;11.07;;;;;;;;;;4993595;28;20166;-47
2021/07/24 12:21:40;;;;;;;13.63;10.75;;;;;;;;;;4993313;28;20043;-47
2021/07/24 12:24:07;;;;;;;12.70;10.45;;;;;;;;;;4993591;28;20582;-48
2021/07/24 12:26:34;;;;;;;15.70;11.43;;;;;;;;;;4986700;28;20116;-45
2021/07/24 12:29:11;;;;;;;15.07;10.63;;;;;;;;;;4991627;28;20085;-49
2021/07/24 12:31:41;;;;;;;14.05;10.07;;;;;;;;;;4990973;28;20447;-45
2021/07/24 12:34:18;;;;;;;14.32;10.82;;;;;;;;;;5012674;28;20042;-48
2021/07/24 12:36:48;;;;;;;15.02;10.75;;;;;;;;;;4995887;28;20129;-46
2021/07/24 12:39:21;;;;;;;16.40;11.40;;;;;;;;;;4998869;28;20092;-49
2021/07/24 12:42:04;;;;;;;14.75;10.10;;;;;;;;;;4996707;28;20133;-47
2021/07/24 12:44:32;;;;;;;14.38;9.95;;;;;;;;;;4986026;28;20121;-45
2021/07/24 12:47:28;;;;;;;14.45;10.70;;;;;;;;;;4995043;28;20535;-45
2021/07/24 12:49:55;;;;;;;16.05;10.70;;;;;;;;;;4973831;28;20100;-48
2021/07/24 12:52:25;;;;;;;14.18;10.63;;;;;;;;;;4994731;28;20081;-50
2021/07/24 12:54:57;;;;;;;15.27;11.05;;;;;;;;;;4993478;28;20073;-49
2021/07/24 12:57:24;;;;;;;11.50;10.18;;;;;;;;;;4994828;28;20077;-49
2021/07/24 12:59:50;;;;;;;13.93;10.35;;;;;;;;;;4979061;28;20106;-47
2021/07/24 13:02:18;;;;;;;15.95;11.60;;;;;;;;;;4994707;28;20126;-48
2021/07/24 13:04:49;;;;;;;14.43;10.52;;;;;;;;;;4993168;28;20038;-50
2021/07/24 13:07:21;;;;;;;11.60;9.23;;;;;;;;;;4987936;28;20499;-47
2021/07/24 13:09:49;;;;;;;14.05;10.30;;;;;;;;;;4974538;28;20050;-48
2021/07/24 13:12:19;;;;;;;13.25;10.32;;;;;;;;;;4975206;28;20129;-48
2021/07/24 13:14:46;;;;;;;12.35;9.70;;;;;;;;;;4988736;28;20441;-46
2021/07/24 13:17:13;;;;;;;14.05;10.55;;;;;;;;;;4999513;28;20065;-47
2021/07/24 13:19:40;;;;;;;12.88;10.75;;;;;;;;;;4998197;28;20073;-48
2021/07/24 13:22:06;;;;;;;16.50;10.80;;;;;;;;;;5008052;28;20130;-47
2021/07/24 13:24:34;;;;;;;13.63;10.50;;;;;;;;;;4994417;28;20046;-47
2021/07/24 13:29:47;;;;;;;16.40;10.07;;;;;;;;;;4979505;28;20134;-47
2021/07/24 13:32:14;;;;;;;13.07;10.90;;;;;;;;;;4992473;28;20130;-50
2021/07/24 13:34:41;;;;;;;17.20;10.95;;;;;;;;;;4992889;28;20046;-48
2021/07/24 13:37:08;;;;;;;13.52;11.13;;;;;;;;;;4994379;28;20372;-46
2021/07/24 13:39:35;;;;;;;14.45;11.52;;;;;;;;;;4985597;28;20053;-46
2021/07/24 13:42:02;;;;;;;14.20;10.68;;;;;;;;;;4996178;28;20810;-47
2021/07/24 13:44:28;;;;;;;17.27;10.98;;;;;;;;;;4996017;28;20046;-46
2021/07/24 13:46:55;;;;;;;12.60;10.25;;;;;;;;;;5007776;28;20042;-50
2021/07/24 13:49:22;;;;;;;14.55;11.07;;;;;;;;;;4995536;28;20038;-45
2021/07/24 13:51:49;;;;;;;12.43;9.85;;;;;;;;;;4994195;28;20085;-47
2021/07/24 13:54:15;;;;;;;12.90;10.70;;;;;;;;;;4995865;28;20117;-46
2021/07/24 13:56:42;;;;;;;12.07;9.80;;;;;;;;;;4995163;28;20133;-46
2021/07/24 13:59:09;;;;;;;14.30;10.68;;;;;;;;;;4990033;28;20039;-47
2021/07/24 14:01:36;;;;;;;16.17;11.25;;;;;;;;;;4993932;28;20134;-45
2021/07/24 14:04:03;;;;;;;12.27;10.45;;;;;;;;;;4998982;28;20060;-47
2021/07/24 14:06:32;;;;;;;13.48;11.00;;;;;;;;;;4991059;28;20066;-50
2021/07/24 14:08:59;;;;;;;17.83;11.80;;;;;;;;;;4991598;28;20045;-48
2021/07/24 14:11:25;;;;;;;14.48;11.73;;;;;;;;;;4995271;28;20133;-47
2021/07/24 14:13:53;;;;;;;16.10;11.38;;;;;;;;;;4994623;28;20045;-46
2021/07/24 14:16:21;;;;;;;16.60;11.82;;;;;;;;;;4987154;28;20439;-48
2021/07/24 14:18:48;;;;;;;14.88;10.98;;;;;;;;;;4991481;28;20039;-46
2021/07/24 14:21:16;;;;;;;13.48;11.30;;;;;;;;;;4993569;28;20089;-46
2021/07/24 14:23:42;;;;;;;16.13;11.18;;;;;;;;;;4987646;28;20471;-46
2021/07/24 14:26:09;;;;;;;14.30;11.48;;;;;;;;;;4992174;28;20507;-47
2021/07/24 14:28:36;;;;;;;14.07;11.10;;;;;;;;;;4991323;28;20043;-49
2021/07/24 14:31:03;;;;;;;18.35;11.82;;;;;;;;;;4990832;28;20136;-46